Time;durP1;ratioP1;P1;durP2;ratioP2;P2;SDS_P1;SDS_P2;PMS_P1;PMS_P2;Temp;Humidity;BMP_temperature;BMP_pressure;BME280_temperature;BME280_humidity;BME280_pressure;Samples;Min_cycle;Max_cycle;Signal;HPM_P1;HPM_P2
2023/12/20 00:01:02;;;;;;;;;;;;;;;2.42;70.20;100009.34;5030653;28;20353;-76
2023/12/20 00:03:27;;;;;;;;;;;;;;;2.34;69.31;100009.91;5032594;28;19982;-77
2023/12/20 00:05:53;;;;;;;;;;;;;;;2.37;70.08;100008.84;5033345;28;20425;-77
2023/12/20 00:08:18;;;;;;;;;;;;;;;2.41;70.73;100016.31;5031903;28;19921;-77
2023/12/20 00:10:44;;;;;;;;;;;;;;;2.40;70.58;100001.63;5031504;28;19920;-77
2023/12/20 00:13:09;;;;;;;;;;;;;;;2.39;69.89;100001.75;5031438;28;19913;-77
2023/12/20 00:15:35;;;;;;;;;;;;;;;2.42;70.03;99994.53;5033048;28;19913;-79
2023/12/20 00:18:00;;;;;;;;;;;;;;;2.41;70.25;99999.84;5031940;28;20302;-77
2023/12/20 00:20:26;;;;;;;;;;;;;;;2.40;69.71;99996.41;5031628;28;20000;-77
2023/12/20 00:22:51;;;;;;;;;;;;;;;2.36;70.00;99997.59;5032791;28;19917;-77
2023/12/20 00:25:16;;;;;;;;;;;;;;;2.36;69.77;99996.75;5032150;28;19913;-77
2023/12/20 00:27:42;;;;;;;;;;;;;;;2.40;70.29;99988.59;5032868;28;19917;-77
2023/12/20 00:30:07;;;;;;;;;;;;;;;2.40;70.27;99991.22;5031787;28;19913;-77
2023/12/20 00:32:33;;;;;;;;;;;;;;;2.38;69.66;100000.09;5033043;28;19921;-77
2023/12/20 00:34:58;;;;;;;;;;;;;;;2.37;70.00;99999.25;5036718;28;19913;-77
2023/12/20 00:37:24;;;;;;;;;;;;;;;2.40;70.66;99996.41;5037019;28;20011;-76
2023/12/20 00:39:49;;;;;;;;;;;;;;;2.37;70.16;99983.63;5036912;28;19913;-77
2023/12/20 00:42:14;;;;;;;;;;;;;;;2.34;70.14;99990.84;5035929;28;20458;-77
2023/12/20 00:44:40;;;;;;;;;;;;;;;2.31;69.99;99991.06;5035064;28;19971;-77
2023/12/20 00:47:05;;;;;;;;;;;;;;;2.28;70.46;99988.69;5035704;28;19921;-77
2023/12/20 00:49:30;;;;;;;;;;;;;;;2.25;70.48;99984.53;5034226;28;19913;-77
2023/12/20 00:51:56;;;;;;;;;;;;;;;2.29;70.77;99978.16;5035170;28;19913;-77
2023/12/20 00:54:21;;;;;;;;;;;;;;;2.32;70.69;99974.50;5034156;28;20472;-77
2023/12/20 00:56:46;;;;;;;;;;;;;;;2.34;69.94;99977.81;5035299;28;19913;-77
2023/12/20 00:59:11;;;;;;;;;;;;;;;2.31;69.80;99986.69;5035474;28;19913;-77
2023/12/20 01:01:37;;;;;;;;;;;;;;;2.30;69.95;99972.00;5034156;28;19996;-77
2023/12/20 01:04:02;;;;;;;;;;;;;;;2.33;69.85;99968.34;5033851;28;19917;-78
2023/12/20 01:06:28;;;;;;;;;;;;;;;2.32;69.95;99966.66;5033788;28;19917;-78
2023/12/20 01:08:53;;;;;;;;;;;;;;;2.34;70.31;99967.38;5033751;28;19913;-78
2023/12/20 01:11:18;;;;;;;;;;;;;;;2.27;70.07;99964.41;5033726;28;20375;-78
2023/12/20 01:13:43;;;;;;;;;;;;;;;2.23;69.91;99961.22;5034037;28;19960;-77
2023/12/20 01:16:11;;;;;;;;;;;;;;;2.21;70.11;99951.81;5035019;28;19971;-78
2023/12/20 01:18:36;;;;;;;;;;;;;;;2.20;69.70;99957.97;5034016;28;19920;-78
2023/12/20 01:21:03;;;;;;;;;;;;;;;2.14;69.52;99953.22;5034969;28;19913;-78
2023/12/20 01:23:28;;;;;;;;;;;;;;;2.09;69.81;99944.91;5034905;28;19965;-78
2023/12/20 01:25:53;;;;;;;;;;;;;;;2.08;69.62;99944.09;5034911;28;19917;-78
2023/12/20 01:28:19;;;;;;;;;;;;;;;2.07;69.75;99939.00;5034816;28;19913;-78
2023/12/20 01:30:44;;;;;;;;;;;;;;;2.01;69.03;99936.84;5034938;28;19995;-78
2023/12/20 01:33:09;;;;;;;;;;;;;;;2.00;69.92;99941.22;5034653;28;20401;-78
2023/12/20 01:35:35;;;;;;;;;;;;;;;1.96;69.76;99936.34;5033314;28;19913;-78
2023/12/20 01:38:00;;;;;;;;;;;;;;;1.92;69.61;99938.34;5034606;28;20387;-78
2023/12/20 01:40:25;;;;;;;;;;;;;;;1.89;69.73;99936.81;5034631;28;19917;-78
2023/12/20 01:43:09;;;;;;;;;;;;;;;1.88;69.85;99929.94;5034575;28;19913;-78
2023/12/20 01:45:35;;;;;;;;;;;;;;;1.82;69.11;99922.59;5034130;28;19948;-78
2023/12/20 01:48:02;;;;;;;;;;;;;;;1.75;69.18;99923.97;5033355;28;19964;-78
2023/12/20 01:50:28;;;;;;;;;;;;;;;1.71;69.42;99922.53;5034548;28;19913;-78
2023/12/20 01:52:55;;;;;;;;;;;;;;;1.66;69.19;99916.84;5035734;28;20357;-78
2023/12/20 01:55:21;;;;;;;;;;;;;;;1.64;69.47;99912.69;5035597;28;19913;-78
2023/12/20 01:57:47;;;;;;;;;;;;;;;1.67;69.81;99915.06;5034290;28;19913;-78
2023/12/20 02:00:13;;;;;;;;;;;;;;;1.67;69.77;99915.06;5035467;28;19920;-79
2023/12/20 02:02:41;;;;;;;;;;;;;;;1.70;70.24;99902.66;5035380;28;20456;-78
2023/12/20 02:05:07;;;;;;;;;;;;;;;1.71;69.77;99900.88;5034060;28;20386;-78
2023/12/20 02:07:34;;;;;;;;;;;;;;;1.74;69.93;99904.09;5032754;28;19917;-78
2023/12/20 02:09:59;;;;;;;;;;;;;;;1.76;69.66;99891.81;5033821;28;19913;-78
2023/12/20 02:12:25;;;;;;;;;;;;;;;1.74;69.24;99890.25;5034117;28;19940;-78
2023/12/20 02:14:50;;;;;;;;;;;;;;;1.69;69.73;99877.59;5032720;28;19920;-78
2023/12/20 02:17:16;;;;;;;;;;;;;;;1.71;69.70;99883.50;5033887;28;19913;-78
2023/12/20 02:19:41;;;;;;;;;;;;;;;1.66;69.92;99877.81;5033992;28;20448;-78
2023/12/20 02:22:10;;;;;;;;;;;;;;;1.66;69.58;99872.59;5034061;28;19999;-78
2023/12/20 02:24:35;;;;;;;;;;;;;;;1.66;69.95;99875.22;5034005;28;20414;-78
2023/12/20 02:27:00;;;;;;;;;;;;;;;1.70;69.85;99871.44;5033442;28;19917;-78
2023/12/20 02:29:26;;;;;;;;;;;;;;;1.69;69.67;99864.56;5033664;28;20011;-78
2023/12/20 02:31:51;;;;;;;;;;;;;;;1.67;69.74;99873.44;5033716;28;19913;-78
2023/12/20 02:34:17;;;;;;;;;;;;;;;1.66;69.78;99857.00;5033797;28;19920;-78
2023/12/20 02:36:42;;;;;;;;;;;;;;;1.65;69.64;99860.53;5035517;28;20377;-79
2023/12/20 02:39:08;;;;;;;;;;;;;;;1.60;69.30;99857.44;5035149;28;19922;-78
2023/12/20 02:41:33;;;;;;;;;;;;;;;1.55;69.67;99859.56;5034125;28;20321;-78
2023/12/20 02:43:58;;;;;;;;;;;;;;;1.51;69.27;99853.75;5035565;28;19940;-78
2023/12/20 02:46:23;;;;;;;;;;;;;;;1.49;69.60;99845.22;5034056;28;19917;-78
2023/12/20 02:48:49;;;;;;;;;;;;;;;1.54;69.93;99840.50;5034704;28;20333;-78
2023/12/20 02:51:14;;;;;;;;;;;;;;;1.53;69.62;99836.25;5033284;28;20366;-78
2023/12/20 02:53:39;;;;;;;;;;;;;;;1.52;69.45;99832.00;5033148;28;19917;-78
2023/12/20 02:56:05;;;;;;;;;;;;;;;1.49;69.52;99832.22;5030809;28;19974;-77
2023/12/20 02:58:30;;;;;;;;;;;;;;;1.48;69.49;99834.91;5033168;28;19945;-77
2023/12/20 03:00:55;;;;;;;;;;;;;;;1.43;69.04;99826.59;5033078;28;20390;-77
2023/12/20 03:03:21;;;;;;;;;;;;;;;1.38;69.38;99834.75;5031752;28;19917;-77
2023/12/20 03:05:46;;;;;;;;;;;;;;;1.37;69.03;99816.66;5032934;28;19952;-77
2023/12/20 03:08:12;;;;;;;;;;;;;;;1.39;69.70;99818.19;5033026;28;19913;-77
2023/12/20 03:10:37;;;;;;;;;;;;;;;1.38;69.37;99813.94;5031633;28;20353;-77
2023/12/20 03:13:02;;;;;;;;;;;;;;;1.41;69.60;99808.50;5032889;28;19913;-77
2023/12/20 03:15:27;;;;;;;;;;;;;;;1.43;69.49;99809.22;5032851;28;19943;-77
2023/12/20 03:17:53;;;;;;;;;;;;;;;1.44;69.20;99808.28;5032834;28;19917;-77
2023/12/20 03:20:18;;;;;;;;;;;;;;;1.42;69.31;99804.13;5032919;28;20382;-78
2023/12/20 03:22:43;;;;;;;;;;;;;;;1.45;69.95;99802.13;5032675;28;19991;-77
2023/12/20 03:25:08;;;;;;;;;;;;;;;1.45;69.49;99793.50;5032523;28;19913;-77
2023/12/20 03:27:33;;;;;;;;;;;;;;;1.50;69.91;99805.25;5032870;28;20010;-77
2023/12/20 03:29:59;;;;;;;;;;;;;;;1.52;69.82;99805.97;5032890;28;19920;-77
2023/12/20 03:32:24;;;;;;;;;;;;;;;1.53;69.37;99806.78;5034034;28;20302;-77
2023/12/20 03:34:49;;;;;;;;;;;;;;;1.53;69.34;99802.41;5033165;28;19913;-77
2023/12/20 03:37:15;;;;;;;;;;;;;;;1.53;69.32;99797.22;5033882;28;19921;-77
2023/12/20 03:39:40;;;;;;;;;;;;;;;1.52;69.39;99798.16;5032940;28;20318;-77
2023/12/20 03:42:05;;;;;;;;;;;;;;;1.53;69.57;99796.38;5030943;28;19917;-77
2023/12/20 03:44:30;;;;;;;;;;;;;;;1.53;69.28;99788.59;5032439;28;19913;-77
2023/12/20 03:46:56;;;;;;;;;;;;;;;1.52;69.75;99787.75;5030796;28;20417;-78
2023/12/20 03:49:21;;;;;;;;;;;;;;;1.48;69.05;99793.28;5031065;28;19957;-78
2023/12/20 03:51:47;;;;;;;;;;;;;;;1.41;69.45;99792.91;5030754;28;20365;-79
2023/12/20 03:54:12;;;;;;;;;;;;;;;1.33;69.75;99784.00;5032009;28;19936;-79
2023/12/20 03:56:37;;;;;;;;;;;;;;;1.34;69.90;99789.09;5030547;28;20374;-77
2023/12/20 03:59:02;;;;;;;;;;;;;;;1.32;69.64;99783.16;5031193;28;19970;-77
2023/12/20 04:01:28;;;;;;;;;;;;;;;1.31;69.58;99781.50;5032036;28;19913;-77
2023/12/20 04:03:53;;;;;;;;;;;;;;;1.34;69.33;99786.50;5031967;28;20393;-77
2023/12/20 04:06:18;;;;;;;;;;;;;;;1.33;69.44;99773.59;5030839;28;20004;-77
2023/12/20 04:08:44;;;;;;;;;;;;;;;1.32;69.49;99780.56;5030765;28;19913;-77
2023/12/20 04:11:09;;;;;;;;;;;;;;;1.34;69.39;99783.88;5032004;28;19920;-77
2023/12/20 04:13:34;;;;;;;;;;;;;;;1.30;69.11;99786.81;5030660;28;19917;-77
2023/12/20 04:15:59;;;;;;;;;;;;;;;1.28;69.29;99782.56;5031959;28;19920;-78
2023/12/20 04:18:25;;;;;;;;;;;;;;;1.24;69.12;99780.31;5032182;28;19913;-77
2023/12/20 04:20:51;;;;;;;;;;;;;;;1.22;69.31;99785.63;5031947;28;19971;-77
2023/12/20 04:23:16;;;;;;;;;;;;;;;1.24;69.11;99783.75;5030575;28;19967;-77
2023/12/20 04:25:42;;;;;;;;;;;;;;;1.25;69.22;99782.78;5030384;28;20406;-78
2023/12/20 04:28:07;;;;;;;;;;;;;;;1.25;69.48;99784.56;5031971;28;19959;-77
2023/12/20 04:30:32;;;;;;;;;;;;;;;1.25;69.47;99780.19;5030987;28;19921;-77
2023/12/20 04:32:58;;;;;;;;;;;;;;;1.26;69.32;99781.03;5031982;28;19983;-77
2023/12/20 04:35:23;;;;;;;;;;;;;;;1.24;69.38;99790.72;5032558;28;20395;-78
2023/12/20 04:37:49;;;;;;;;;;;;;;;1.27;69.19;99785.28;5032340;28;20000;-77
2023/12/20 04:40:14;;;;;;;;;;;;;;;1.31;69.41;99780.69;5032736;28;19988;-77
2023/12/20 04:42:40;;;;;;;;;;;;;;;1.30;69.44;99772.06;5031375;28;20011;-78
2023/12/20 04:45:05;;;;;;;;;;;;;;;1.32;69.06;99777.13;5031455;28;20010;-77
2023/12/20 04:47:30;;;;;;;;;;;;;;;1.31;68.91;99775.47;5032127;28;20388;-78
2023/12/20 04:49:56;;;;;;;;;;;;;;;1.32;69.49;99777.13;5031548;28;20039;-77
2023/12/20 04:52:21;;;;;;;;;;;;;;;1.33;69.38;99771.00;5031630;28;19920;-78
2023/12/20 04:54:47;;;;;;;;;;;;;;;1.31;69.60;99765.91;5031508;28;19917;-77
2023/12/20 04:57:12;;;;;;;;;;;;;;;1.32;68.93;99767.56;5031870;28;19917;-78
2023/12/20 04:59:37;;;;;;;;;;;;;;;1.29;68.90;99757.38;5031603;28;20390;-77
2023/12/20 05:02:02;;;;;;;;;;;;;;;1.32;68.80;99751.13;5031574;28;19939;-77
2023/12/20 05:04:28;;;;;;;;;;;;;;;1.29;68.71;99746.97;5031729;28;20329;-77
2023/12/20 05:06:53;;;;;;;;;;;;;;;1.27;68.98;99744.50;5031575;28;19917;-77
2023/12/20 05:09:18;;;;;;;;;;;;;;;1.24;69.27;99739.53;5031404;28;19913;-77
2023/12/20 05:11:43;;;;;;;;;;;;;;;1.21;69.34;99741.53;5031544;28;20279;-78
2023/12/20 05:14:09;;;;;;;;;;;;;;;1.23;69.28;99750.88;5031839;28;20354;-79
2023/12/20 05:16:34;;;;;;;;;;;;;;;1.26;69.33;99748.03;5031463;28;19914;-77
2023/12/20 05:19:01;;;;;;;;;;;;;;;1.19;68.78;99746.84;5032575;28;20330;-77
2023/12/20 05:21:27;;;;;;;;;;;;;;;1.22;69.30;99749.22;5036611;28;19949;-77
2023/12/20 05:23:52;;;;;;;;;;;;;;;1.22;69.19;99750.97;5036377;28;19913;-77
2023/12/20 05:26:17;;;;;;;;;;;;;;;1.23;69.24;99750.03;5036377;28;20429;-77
2023/12/20 05:28:43;;;;;;;;;;;;;;;1.25;69.30;99753.34;5035115;28;19917;-77
2023/12/20 05:31:08;;;;;;;;;;;;;;;1.21;68.64;99754.53;5036117;28;19936;-77
2023/12/20 05:33:34;;;;;;;;;;;;;;;1.21;68.39;99752.75;5035306;28;19996;-77
2023/12/20 05:35:59;;;;;;;;;;;;;;;1.22;69.14;99741.41;5033611;28;19913;-77
2023/12/20 05:38:24;;;;;;;;;;;;;;;1.26;69.01;99729.00;5034677;28;19928;-77
2023/12/20 05:40:49;;;;;;;;;;;;;;;1.29;69.05;99731.38;5034672;28;19913;-77
2023/12/20 05:43:15;;;;;;;;;;;;;;;1.31;69.04;99726.88;5034504;28;19920;-78
2023/12/20 05:45:40;;;;;;;;;;;;;;;1.35;68.92;99727.50;5034398;28;19913;-78
2023/12/20 05:48:05;;;;;;;;;;;;;;;1.33;68.62;99729.38;5034394;28;19917;-77
2023/12/20 05:50:31;;;;;;;;;;;;;;;1.31;68.69;99724.28;5033395;28;19936;-78
2023/12/20 05:52:56;;;;;;;;;;;;;;;1.33;68.86;99721.56;5034447;28;19913;-78
2023/12/20 05:55:22;;;;;;;;;;;;;;;1.33;68.80;99716.38;5034379;28;20357;-78
2023/12/20 05:57:48;;;;;;;;;;;;;;;1.24;68.22;99713.50;5034374;28;19952;-78
2023/12/20 06:00:13;;;;;;;;;;;;;;;1.22;68.46;99712.81;5033133;28;19917;-78
2023/12/20 06:02:39;;;;;;;;;;;;;;;1.26;68.92;99716.00;5034552;28;19920;-78
2023/12/20 06:05:05;;;;;;;;;;;;;;;1.25;68.39;99709.97;5034307;28;19967;-78
2023/12/20 06:07:30;;;;;;;;;;;;;;;1.29;68.60;99715.78;5034066;28;19917;-78
2023/12/20 06:09:55;;;;;;;;;;;;;;;1.30;69.01;99712.22;5034418;28;20010;-78
2023/12/20 06:12:21;;;;;;;;;;;;;;;1.30;68.47;99703.59;5053953;28;19920;-78
2023/12/20 06:14:46;;;;;;;;;;;;;;;1.32;68.78;99712.13;5052472;28;19913;-78
2023/12/20 06:17:11;;;;;;;;;;;;;;;1.30;68.87;99711.41;5052565;28;19970;-78
2023/12/20 06:19:36;;;;;;;;;;;;;;;1.34;69.20;99705.84;5054162;28;19913;-78
2023/12/20 06:22:02;;;;;;;;;;;;;;;1.38;68.43;99706.44;5053764;28;20007;-78
2023/12/20 06:24:28;;;;;;;;;;;;;;;1.37;68.38;99712.59;5052083;28;19919;-78
2023/12/20 06:26:53;;;;;;;;;;;;;;;1.36;68.25;99705.72;5053991;28;19921;-78
2023/12/20 06:29:18;;;;;;;;;;;;;;;1.41;68.54;99703.63;5053577;28;19917;-78
2023/12/20 06:31:44;;;;;;;;;;;;;;;1.43;68.64;99706.94;5040965;28;20329;-77
2023/12/20 06:34:10;;;;;;;;;;;;;;;1.45;68.35;99705.03;5051852;28;19917;-77
2023/12/20 06:36:35;;;;;;;;;;;;;;;1.46;68.97;99704.91;5052110;28;19971;-78
2023/12/20 06:39:00;;;;;;;;;;;;;;;1.43;68.64;99709.53;5050476;28;19921;-78
2023/12/20 06:41:26;;;;;;;;;;;;;;;1.41;68.55;99716.63;5053096;28;19913;-78
2023/12/20 06:43:52;;;;;;;;;;;;;;;1.42;68.68;99711.31;5053163;28;19913;-77
2023/12/20 06:46:18;;;;;;;;;;;;;;;1.43;68.51;99709.53;5042690;28;20299;-78
2023/12/20 06:48:43;;;;;;;;;;;;;;;1.41;68.53;99716.63;5032928;28;19967;-77
2023/12/20 06:51:12;;;;;;;;;;;;;;;1.41;68.04;99708.81;5034097;28;19923;-78
2023/12/20 06:53:38;;;;;;;;;;;;;;;1.40;68.89;99709.75;5034335;28;20318;-78
2023/12/20 06:56:03;;;;;;;;;;;;;;;1.45;68.91;99711.06;5032205;28;19917;-78
2023/12/20 06:58:28;;;;;;;;;;;;;;;1.48;69.11;99710.84;5033578;28;19966;-78
2023/12/20 07:00:54;;;;;;;;;;;;;;;1.53;69.00;99715.72;5039751;28;19917;-78
2023/12/20 07:03:19;;;;;;;;;;;;;;;1.52;69.10;99721.88;5051846;28;19920;-78
2023/12/20 07:05:44;;;;;;;;;;;;;;;1.58;68.42;99705.78;5036287;28;19959;-78
2023/12/20 07:08:10;;;;;;;;;;;;;;;1.63;68.84;99702.84;5029536;28;19971;-78
2023/12/20 07:10:36;;;;;;;;;;;;;;;1.68;68.48;99706.75;5032587;28;19967;-78
2023/12/20 07:13:01;;;;;;;;;;;;;;;1.66;68.69;99687.81;5040883;28;20478;-78
2023/12/20 07:15:26;;;;;;;;;;;;;;;1.75;68.61;99686.28;5034707;28;19917;-78
2023/12/20 07:17:52;;;;;;;;;;;;;;;1.82;68.91;99688.28;5033427;28;19916;-78
2023/12/20 07:20:17;;;;;;;;;;;;;;;1.87;68.31;99686.16;5046259;28;19924;-79
2023/12/20 07:22:42;;;;;;;;;;;;;;;1.89;68.94;99680.84;5047920;28;19917;-78
2023/12/20 07:25:08;;;;;;;;;;;;;;;1.96;68.33;99683.78;5049387;28;20015;-78
2023/12/20 07:27:33;;;;;;;;;;;;;;;2.02;68.29;99675.50;5051720;28;20409;-78
2023/12/20 07:29:58;;;;;;;;;;;;;;;2.09;68.39;99680.09;5033535;28;19932;-78
2023/12/20 07:32:23;;;;;;;;;;;;;;;2.13;68.36;99673.69;5026209;28;19964;-78
2023/12/20 07:34:49;;;;;;;;;;;;;;;2.20;68.71;99674.88;5033414;28;20321;-78
2023/12/20 07:37:14;;;;;;;;;;;;;;;2.28;68.93;99676.91;5026258;28;19980;-78
2023/12/20 07:39:40;;;;;;;;;;;;;;;2.34;69.07;99675.56;5026072;28;19945;-78
2023/12/20 07:42:05;;;;;;;;;;;;;;;2.38;68.35;99672.59;5025766;28;19960;-78
2023/12/20 07:44:31;;;;;;;;;;;;;;;2.47;68.60;99664.03;5032747;28;20528;-78
2023/12/20 07:46:56;;;;;;;;;;;;;;;2.48;68.23;99665.69;5032535;28;19917;-78
2023/12/20 07:49:21;;;;;;;;;;;;;;;2.53;68.44;99663.56;5032713;28;19917;-78
2023/12/20 07:51:47;;;;;;;;;;;;;;;2.63;68.89;99665.41;5031994;28;19913;-78
2023/12/20 07:54:12;;;;;;;;;;;;;;;2.67;68.69;99661.59;5032665;28;19920;-78
2023/12/20 07:56:37;;;;;;;;;;;;;;;2.69;68.19;99652.69;5032865;28;19913;-78
2023/12/20 07:59:02;;;;;;;;;;;;;;;2.76;68.18;99659.06;5025642;28;19913;-78
2023/12/20 08:01:28;;;;;;;;;;;;;;;2.83;68.14;99648.97;5035747;28;19924;-78
2023/12/20 08:03:53;;;;;;;;;;;;;;;2.86;68.65;99648.72;5033782;28;19955;-78
2023/12/20 08:06:18;;;;;;;;;;;;;;;2.90;68.06;99654.50;5030308;28;20386;-78
2023/12/20 08:08:43;;;;;;;;;;;;;;;2.91;68.23;99645.72;5032409;28;19949;-78
2023/12/20 08:11:09;;;;;;;;;;;;;;;2.95;68.36;99644.50;5034721;28;19917;-78
2023/12/20 08:13:34;;;;;;;;;;;;;;;2.99;68.11;99644.16;5033110;28;20425;-78
2023/12/20 08:15:59;;;;;;;;;;;;;;;3.08;68.45;99638.19;5033521;28;19913;-78
2023/12/20 08:18:24;;;;;;;;;;;;;;;3.15;68.36;99636.72;5030615;28;20004;-78
2023/12/20 08:20:52;;;;;;;;;;;;;;;3.23;68.13;99641.28;5031304;28;20413;-78
2023/12/20 08:23:18;;;;;;;;;;;;;;;3.27;67.90;99637.47;5032035;28;19917;-79
2023/12/20 08:25:43;;;;;;;;;;;;;;;3.35;68.15;99640.25;5030043;28;19924;-78
2023/12/20 08:28:08;;;;;;;;;;;;;;;3.41;68.42;99637.13;5030617;28;19921;-78
2023/12/20 08:30:34;;;;;;;;;;;;;;;3.49;68.00;99633.88;5046761;28;20405;-78
2023/12/20 08:33:00;;;;;;;;;;;;;;;3.55;67.81;99627.28;5051482;28;19920;-77
2023/12/20 08:35:25;;;;;;;;;;;;;;;3.61;67.98;99621.53;5035634;28;19999;-78
2023/12/20 08:37:50;;;;;;;;;;;;;;;3.64;67.83;99613.44;5031562;28;19921;-77
2023/12/20 08:40:15;;;;;;;;;;;;;;;3.68;68.10;99610.44;5031509;28;19967;-78
2023/12/20 08:42:41;;;;;;;;;;;;;;;3.74;67.83;99604.72;5028286;28;19910;-77
2023/12/20 08:45:06;;;;;;;;;;;;;;;3.79;67.67;99602.53;5032541;28;20503;-78
2023/12/20 08:47:31;;;;;;;;;;;;;;;3.85;67.83;99600.34;5031704;28;19988;-78
2023/12/20 08:49:59;;;;;;;;;;;;;;;3.90;67.65;99596.38;5030744;28;19944;-78
2023/12/20 08:52:24;;;;;;;;;;;;;;;3.96;67.81;99587.16;5033327;28;19918;-78
2023/12/20 08:54:51;;;;;;;;;;;;;;;4.02;67.76;99586.63;5034481;28;19940;-78
2023/12/20 08:57:17;;;;;;;;;;;;;;;4.08;67.71;99583.47;5034711;28;19917;-78
2023/12/20 08:59:43;;;;;;;;;;;;;;;4.15;67.52;99571.53;5036324;28;20372;-78
2023/12/20 09:02:08;;;;;;;;;;;;;;;4.24;67.55;99567.25;5035972;28;19952;-78
2023/12/20 09:04:33;;;;;;;;;;;;;;;4.32;67.65;99562.16;5036230;28;19917;-78
2023/12/20 09:06:59;;;;;;;;;;;;;;;4.38;67.48;99561.63;5037325;28;20318;-78
2023/12/20 09:09:25;;;;;;;;;;;;;;;4.44;67.42;99550.63;5036402;28;20398;-77
2023/12/20 09:11:51;;;;;;;;;;;;;;;4.53;67.41;99551.59;5036867;28;19917;-78
2023/12/20 09:14:16;;;;;;;;;;;;;;;4.57;67.22;99540.72;5032397;28;19913;-77
2023/12/20 09:16:41;;;;;;;;;;;;;;;4.64;67.07;99533.13;5034026;28;19924;-77
2023/12/20 09:19:07;;;;;;;;;;;;;;;4.66;67.17;99526.81;5036023;28;20341;-78
2023/12/20 09:21:32;;;;;;;;;;;;;;;4.71;66.98;99515.91;5032411;28;20003;-78
2023/12/20 09:23:57;;;;;;;;;;;;;;;4.77;67.05;99517.97;5040376;28;19921;-78
2023/12/20 09:26:22;;;;;;;;;;;;;;;4.83;66.89;99512.16;5033816;28;20025;-78
2023/12/20 09:28:48;;;;;;;;;;;;;;;4.87;67.21;99505.69;5039144;28;19921;-78
2023/12/20 09:31:13;;;;;;;;;;;;;;;4.93;67.20;99499.06;5028416;28;19923;-78
2023/12/20 09:33:38;;;;;;;;;;;;;;;4.99;66.88;99507.16;5033663;28;19932;-77
2023/12/20 09:36:04;;;;;;;;;;;;;;;5.06;66.92;99502.19;5033793;28;19917;-78
2023/12/20 09:38:29;;;;;;;;;;;;;;;5.12;66.81;99488.50;5042333;28;19960;-78
2023/12/20 09:40:55;;;;;;;;;;;;;;;5.16;67.22;99483.81;5053813;28;20382;-78
2023/12/20 09:43:23;;;;;;;;;;;;;;;5.20;66.71;99472.09;5035109;28;19923;-78
2023/12/20 09:45:52;;;;;;;;;;;;;;;5.23;67.09;99469.22;5028425;28;20436;-77
2023/12/20 09:48:18;;;;;;;;;;;;;;;5.25;67.03;99462.03;5033339;28;19917;-77
2023/12/20 09:50:44;;;;;;;;;;;;;;;5.28;66.80;99459.13;5032978;28;19967;-77
2023/12/20 09:53:11;;;;;;;;;;;;;;;5.29;67.09;99455.53;5031629;28;19972;-76
2023/12/20 09:55:38;;;;;;;;;;;;;;;5.33;66.91;99449.03;5030972;28;19921;-79
2023/12/20 09:58:03;;;;;;;;;;;;;;;5.42;66.44;99456.84;5042574;28;20008;-77
2023/12/20 10:00:28;;;;;;;;;;;;;;;5.47;66.66;99448.53;5036542;28;20425;-77
2023/12/20 10:02:57;;;;;;;;;;;;;;;5.56;66.68;99446.81;5032359;28;20310;-77
2023/12/20 10:05:26;;;;;;;;;;;;;;;5.64;66.68;99441.66;5031187;28;20425;-78
2023/12/20 10:07:51;;;;;;;;;;;;;;;5.72;66.32;99432.09;5032326;28;19936;-80
2023/12/20 10:10:17;;;;;;;;;;;;;;;5.79;66.08;99439.34;5032239;28;19917;-78
2023/12/20 10:13:00;;;;;;;;;;;;;;;5.87;66.32;99428.94;5028109;28;19917;-78
2023/12/20 10:15:25;;;;;;;;;;;;;;;5.95;66.22;99424.66;5044202;28;19917;-78
2023/12/20 10:17:51;;;;;;;;;;;;;;;6.01;65.55;99416.19;5044589;28;20008;-77
2023/12/20 10:20:16;;;;;;;;;;;;;;;6.06;66.29;99413.09;5053445;28;20401;-78
2023/12/20 10:22:41;;;;;;;;;;;;;;;6.12;65.49;99403.81;5053639;28;19952;-78
2023/12/20 10:25:07;;;;;;;;;;;;;;;6.18;66.21;99395.34;5047169;28;19917;-79
2023/12/20 10:27:33;;;;;;;;;;;;;;;6.24;65.80;99394.72;5032045;28;19921;-78
2023/12/20 10:29:59;;;;;;;;;;;;;;;6.32;65.51;99397.41;5032380;28;20413;-78
2023/12/20 10:32:25;;;;;;;;;;;;;;;6.38;65.36;99388.91;5033257;28;19913;-78
2023/12/20 10:34:51;;;;;;;;;;;;;;;6.45;65.87;99371.56;5032003;28;19909;-79
2023/12/20 10:37:17;;;;;;;;;;;;;;;6.56;65.28;99381.78;5031816;28;19921;-79
2023/12/20 10:39:42;;;;;;;;;;;;;;;6.62;65.35;99381.16;5031860;28;20398;-78
2023/12/20 10:42:09;;;;;;;;;;;;;;;6.64;65.46;99368.72;5031820;28;20333;-78
2023/12/20 10:44:34;;;;;;;;;;;;;;;6.60;64.52;99371.81;5030903;28;19924;-78
2023/12/20 10:47:00;;;;;;;;;;;;;;;6.57;64.72;99370.31;5031121;28;19921;-78
2023/12/20 10:49:26;;;;;;;;;;;;;;;6.53;64.70;99365.53;5032919;28;19959;-78
2023/12/20 10:51:54;;;;;;;;;;;;;;;6.47;65.07;99361.75;5032985;28;19913;-78
2023/12/20 10:54:19;;;;;;;;;;;;;;;6.45;64.73;99355.03;5030017;28;19917;-78
2023/12/20 10:56:45;;;;;;;;;;;;;;;6.46;64.69;99351.41;5039987;28;20463;-78
2023/12/20 10:59:10;;;;;;;;;;;;;;;6.47;65.23;99346.00;5030291;28;19921;-78
2023/12/20 11:01:37;;;;;;;;;;;;;;;6.51;64.79;99341.28;5031862;28;19921;-78
2023/12/20 11:04:07;;;;;;;;;;;;;;;6.48;64.64;99336.34;5031436;28;20430;-80
2023/12/20 11:06:32;;;;;;;;;;;;;;;6.50;64.31;99339.63;5031566;28;19956;-78
2023/12/20 11:09:12;;;;;;;;;;;;;;;6.52;65.25;99341.13;5032021;28;19956;-78
2023/12/20 11:11:47;;;;;;;;;;;;;;;6.45;64.77;99326.16;5047819;28;20026;-78
2023/12/20 11:14:19;;;;;;;;;;;;;;;6.58;64.78;99326.56;5031823;28;19920;-80
2023/12/20 11:16:45;;;;;;;;;;;;;;;6.63;64.77;99321.66;5029767;28;19975;-77
2023/12/20 11:19:13;;;;;;;;;;;;;;;6.66;65.03;99319.53;5032014;28;19936;-77
2023/12/20 11:21:39;;;;;;;;;;;;;;;6.68;65.08;99325.44;5032402;28;19913;-77
2023/12/20 11:24:05;;;;;;;;;;;;;;;6.67;64.76;99310.69;5033329;28;20482;-77
2023/12/20 11:26:32;;;;;;;;;;;;;;;6.67;64.72;99307.25;5029377;28;20487;-78
2023/12/20 11:29:16;;;;;;;;;;;;;;;6.68;64.76;99314.13;5030189;28;19917;-78
2023/12/20 11:31:41;;;;;;;;;;;;;;;6.72;64.93;99298.94;5012340;28;20461;-77
2023/12/20 11:34:13;;;;;;;;;;;;;;;6.75;64.44;99304.69;5012267;28;19914;-77
2023/12/20 11:36:39;;;;;;;;;;;;;;;6.80;64.06;99305.03;5025351;28;19917;-78
2023/12/20 11:39:08;;;;;;;;;;;;;;;6.85;64.11;99289.63;5031954;28;20392;-77
2023/12/20 11:41:34;;;;;;;;;;;;;;;6.89;64.06;99290.94;5030773;28;20020;-78
2023/12/20 11:44:00;;;;;;;;;;;;;;;6.91;63.88;99283.72;5032015;28;19951;-79
2023/12/20 11:46:26;;;;;;;;;;;;;;;6.95;63.95;99290.28;5029041;28;20408;-78
2023/12/20 11:48:51;;;;;;;;;;;;;;;6.96;64.26;99281.44;5031792;28;19913;-79
2023/12/20 11:51:16;;;;;;;;;;;;;;;6.98;64.12;99268.97;5031783;28;19917;-80
2023/12/20 11:53:42;;;;;;;;;;;;;;;7.00;64.43;99264.38;5029790;28;19928;-76
2023/12/20 11:56:08;;;;;;;;;;;;;;;7.00;64.16;99271.44;5031451;28;19913;-79
2023/12/20 11:58:33;;;;;;;;;;;;;;;6.99;63.94;99257.50;5024396;28;20480;-78
2023/12/20 12:00:59;;;;;;;;;;;;;;;6.99;64.13;99257.50;5031657;28;20449;-78
2023/12/20 12:03:24;;;;;;;;;;;;;;;7.00;64.44;99248.63;5033023;28;19917;-79
2023/12/20 12:05:49;;;;;;;;;;;;;;;7.01;64.14;99245.03;5029439;28;19995;-79
2023/12/20 12:08:15;;;;;;;;;;;;;;;7.02;64.20;99243.22;5030685;28;19917;-79
2023/12/20 12:10:40;;;;;;;;;;;;;;;7.06;65.06;99241.09;5033775;28;19917;-79
2023/12/20 12:13:06;;;;;;;;;;;;;;;7.09;64.25;99235.50;5032777;28;19979;-83
2023/12/20 12:15:31;;;;;;;;;;;;;;;7.12;64.45;99224.69;5030525;28;19917;-80
2023/12/20 12:17:57;;;;;;;;;;;;;;;7.12;63.85;99222.88;5032033;28;19939;-80
2023/12/20 12:20:23;;;;;;;;;;;;;;;7.14;64.12;99222.72;5032655;28;20402;-79
2023/12/20 12:23:00;;;;;;;;;;;;;;;7.15;63.99;99219.09;5031835;28;19917;-78
2023/12/20 12:25:25;;;;;;;;;;;;;;;7.12;63.90;99208.94;5029752;28;20003;-79
2023/12/20 12:27:51;;;;;;;;;;;;;;;7.07;63.98;99204.19;5030803;28;20016;-79
2023/12/20 12:30:18;;;;;;;;;;;;;;;7.04;63.97;99207.13;5035760;28;19913;-78
2023/12/20 12:32:43;;;;;;;;;;;;;;;6.99;64.40;99210.25;5041310;28;19979;-79
2023/12/20 12:35:09;;;;;;;;;;;;;;;6.97;64.89;99201.72;5034388;28;19917;-79
2023/12/20 12:37:36;;;;;;;;;;;;;;;6.94;64.73;99202.03;5033368;28;20337;-79
2023/12/20 12:40:05;;;;;;;;;;;;;;;6.92;64.93;99201.38;5034238;28;20397;-77
2023/12/20 12:42:30;;;;;;;;;;;;;;;6.92;64.90;99192.69;5035452;28;19920;-79
2023/12/20 12:44:56;;;;;;;;;;;;;;;6.91;64.23;99191.06;5035510;28;19913;-80
2023/12/20 12:47:21;;;;;;;;;;;;;;;6.91;65.11;99183.19;5035150;28;19917;-80
2023/12/20 12:49:47;;;;;;;;;;;;;;;6.93;65.21;99187.28;5034433;28;19920;-80